Hauptseite
METAR-TAF:

METAR-TAF

Flughäfen :

Flughafen Sofia

Sofia, Bulgarien

Breite: 42-39N, Länge: 023-23E, Höhe: 586 m

Beobachtung

Neuester Wetterbericht von vor 14 Minuten, um 17:30 UTC
Wind 6 kt aus Ost/Nordost
Temperatur 25°C
Luftfeuchtigkeit 54%
Luftdruck 1018 hPa
Sichtweite 10 km oder mehr
Leicht bewölkt in der Höhe von 6800 ft

METAR: LBSF 181730Z 07006KT 9999 FEW068 25/15 Q1018 NOSIG

Zeit: 20:44 (17:44 UTC)

Prognose

Neuester Wetterbericht von vor 44 Minuten, um 17:00 UTC
Gültige Prognose vom 18 um 18 UTC bis 19 um 18 UTC
Wind 8 kt aus Nordost
Sichtweite 10 km oder mehr
keine Wolken unter 1500 m und keine Kumulonimbus oder Gewitterwolken
Wahrscheinlichkeit 30% :
Zeitweise
vom 18 um 18 UTC bis 18 um 19 UTC
Leicht bewölkt in der Höhe von 3000 ft, Kumulonimbus.
Aufgelockert bewölkt in der Höhe von 5000 ft
Regenschauer

TAF: LBSF 181700Z 1818/1918 05008KT CAVOK PROB30 TEMPO 1818/1819 SHRA FEW030CB SCT050

Wetterbeobachtungen und Prognosen von mehr als 4000 Flughäfen (METAR und TAF Bericht).

Die verfügbaren Stationen werden durch gelbe und rote Markierungen auf der Karte dargestellt.

Führen Sie die Maus auf sie, um den Namen der Station zu sehen.

Darauf klicken, um die Beobachtung von Wetterbeobachtungen und Prognosen zu sehen.

Um die Karte zu ändern : klicken Sie auf den grünen Tasten mit einem schwarzen Kreuz Zum Vergrößern, auf den grünen Button mit einem Gedankenstrich zu verkleinern, oder auf die grünen Pfeile für benachbarte Karten.


METAR-TAF: